Accueil
METAR-TAF:

METAR-TAF

Aéroports :

Beauvechain, Belgique

Base aérienne de Beauvechain

latitude: 50-45N, longitude: 004-46E, altitude: 105 m

Observation

Le bulletin a été fait il y a 23 minutes, à 19:25 UTC
Vent 13 kt de est/nord-est
Température -1°C
Humidité 64%
Pression 1023 hPa
Visibilité 10 km ou plus

METAR: EBBE 241925Z AUTO 06013KT 9999 NCD M01/M07 Q1023 BLU

Heure: 20:48 (19:48 UTC)

Prévision

Le bulletin a été fait il y a 28 heures et 7 minutes, à 15:41 UTC
Prévision valable du 23 à 19 UTC au 24 à 07 UTC
Vent 15 kt de est/nord-est avec des rafales jusqu'à 25 kt
Visibilité 10 km ou plus
Quelques nuages à une hauteur de 25000 ft
Temporairement
du 24 à 03 UTC au 24 à 07 UTC
Visibilité: 5000 m
brume

TAF: EBBE 231541Z 2319/2407 07015G25KT 9999 FEW250 TEMPO 2403/2407 5000 BR

Observations et prévisions météorologiques de plus de 4000 aéroports (messages METAR et TAF).

Les stations disponibles sont représentées par des disques jaunes et rouges sur la carte.

Passer la souris dessus pour voir le nom de la station.

Cliquer dessus pour voir les observations et prévisions météorologiques.

Pour changer de carte: cliquez sur les boutons verts avec une croix noire pour zoomer, sur le bouton vert avec un tiret pour effectuer un zoom arrière, ou sur les flèches vertes pour les cartes adjacentes.


METAR-TAF: